Terminal Aerodrome Forecast
Issued by NWS Atlanta, GA

Home | Current Version | Previous Version | Text Only | Print | Product List | Glossary On
Versions: 1 2 3 4 5 6 7 8 9 10 11 12 13 14 15 16 17
000
FTUS42 KFFC 251720
TAFMCN
TAF
KMCN 251720Z 2518/2618 32010G18KT P6SM BKN040
     FM252000 30010G19KT P6SM SCT045
     FM260000 29004KT P6SM FEW250
     FM261200 16006KT P6SM SCT035 SCT100 BKN250
     FM261600 18008KT P6SM VCSH SCT025 BKN100 PROB30 2617/2618 4SM
      TSRA BKN025CB=

USA.gov is the U.S. government's official web portal to all federal, state and local government web resources and services.